sensor_id;sensor_type;location;lat;lon;timestamp;P1;durP1;ratioP1;P2;durP2;ratioP2
40907;SDS011;51055;59.436;24.778;2024-02-21T00:01:54;8.07;;;3.25;;
40907;SDS011;51055;59.436;24.778;2024-02-21T00:04:22;6.63;;;3.47;;
40907;SDS011;51055;59.436;24.778;2024-02-21T00:06:49;5.63;;;2.85;;
40907;SDS011;51055;59.436;24.778;2024-02-21T00:09:17;7.00;;;3.63;;
40907;SDS011;51055;59.436;24.778;2024-02-21T00:14:14;5.63;;;2.17;;
40907;SDS011;51055;59.436;24.778;2024-02-21T00:16:41;5.80;;;3.22;;
40907;SDS011;51055;59.436;24.778;2024-02-21T00:19:08;7.63;;;3.53;;
40907;SDS011;51055;59.436;24.778;2024-02-21T00:21:36;6.47;;;3.47;;
40907;SDS011;51055;59.436;24.778;2024-02-21T00:24:04;6.90;;;3.20;;
40907;SDS011;51055;59.436;24.778;2024-02-21T00:26:31;11.48;;;3.85;;
40907;SDS011;51055;59.436;24.778;2024-02-21T00:28:59;6.55;;;3.03;;
40907;SDS011;51055;59.436;24.778;2024-02-21T00:31:26;7.35;;;3.30;;
40907;SDS011;51055;59.436;24.778;2024-02-21T00:33:54;7.18;;;3.30;;
40907;SDS011;51055;59.436;24.778;2024-02-21T00:36:21;7.30;;;3.22;;
40907;SDS011;51055;59.436;24.778;2024-02-21T00:38:49;6.78;;;3.38;;
40907;SDS011;51055;59.436;24.778;2024-02-21T00:41:16;7.57;;;3.60;;
40907;SDS011;51055;59.436;24.778;2024-02-21T00:43:44;8.15;;;3.72;;
40907;SDS011;51055;59.436;24.778;2024-02-21T00:46:11;9.15;;;3.60;;
40907;SDS011;51055;59.436;24.778;2024-02-21T00:48:39;8.32;;;3.90;;
40907;SDS011;51055;59.436;24.778;2024-02-21T00:51:07;8.73;;;3.80;;
40907;SDS011;51055;59.436;24.778;2024-02-21T00:53:34;7.85;;;3.78;;
40907;SDS011;51055;59.436;24.778;2024-02-21T00:56:05;9.57;;;4.40;;
40907;SDS011;51055;59.436;24.778;2024-02-21T00:58:33;8.73;;;4.78;;
40907;SDS011;51055;59.436;24.778;2024-02-21T01:01:00;8.93;;;4.72;;
40907;SDS011;51055;59.436;24.778;2024-02-21T01:03:29;8.88;;;4.93;;
40907;SDS011;51055;59.436;24.778;2024-02-21T01:05:56;9.40;;;4.85;;
40907;SDS011;51055;59.436;24.778;2024-02-21T01:08:23;10.32;;;5.15;;
40907;SDS011;51055;59.436;24.778;2024-02-21T01:10:51;9.35;;;5.20;;
40907;SDS011;51055;59.436;24.778;2024-02-21T01:13:19;8.20;;;3.80;;
40907;SDS011;51055;59.436;24.778;2024-02-21T01:15:47;8.93;;;4.88;;
40907;SDS011;51055;59.436;24.778;2024-02-21T01:18:14;9.45;;;5.05;;
40907;SDS011;51055;59.436;24.778;2024-02-21T01:20:42;10.95;;;5.55;;
40907;SDS011;51055;59.436;24.778;2024-02-21T01:23:09;11.00;;;5.50;;
40907;SDS011;51055;59.436;24.778;2024-02-21T01:25:37;9.95;;;5.60;;
40907;SDS011;51055;59.436;24.778;2024-02-21T01:28:04;9.27;;;5.15;;
40907;SDS011;51055;59.436;24.778;2024-02-21T01:30:32;9.25;;;4.95;;
40907;SDS011;51055;59.436;24.778;2024-02-21T01:32:59;8.32;;;4.95;;
40907;SDS011;51055;59.436;24.778;2024-02-21T01:35:27;8.90;;;4.43;;
40907;SDS011;51055;59.436;24.778;2024-02-21T01:37:54;8.75;;;4.18;;
40907;SDS011;51055;59.436;24.778;2024-02-21T01:40:22;10.10;;;4.85;;
40907;SDS011;51055;59.436;24.778;2024-02-21T01:42:49;9.75;;;4.82;;
40907;SDS011;51055;59.436;24.778;2024-02-21T01:45:17;10.07;;;4.22;;
40907;SDS011;51055;59.436;24.778;2024-02-21T01:47:45;9.95;;;4.47;;
40907;SDS011;51055;59.436;24.778;2024-02-21T01:50:13;9.60;;;4.50;;
40907;SDS011;51055;59.436;24.778;2024-02-21T01:52:42;8.60;;;4.30;;
40907;SDS011;51055;59.436;24.778;2024-02-21T01:55:11;8.95;;;4.40;;
40907;SDS011;51055;59.436;24.778;2024-02-21T01:57:41;8.52;;;4.28;;
40907;SDS011;51055;59.436;24.778;2024-02-21T02:00:10;8.48;;;4.32;;
40907;SDS011;51055;59.436;24.778;2024-02-21T02:02:39;8.15;;;4.22;;
40907;SDS011;51055;59.436;24.778;2024-02-21T02:05:07;7.45;;;3.60;;
40907;SDS011;51055;59.436;24.778;2024-02-21T02:07:35;7.93;;;3.75;;
40907;SDS011;51055;59.436;24.778;2024-02-21T02:10:03;7.82;;;4.13;;
40907;SDS011;51055;59.436;24.778;2024-02-21T02:12:31;10.97;;;4.63;;
40907;SDS011;51055;59.436;24.778;2024-02-21T02:15:01;8.85;;;4.57;;
40907;SDS011;51055;59.436;24.778;2024-02-21T02:17:31;11.82;;;4.20;;
40907;SDS011;51055;59.436;24.778;2024-02-21T02:19:59;10.82;;;4.60;;
40907;SDS011;51055;59.436;24.778;2024-02-21T02:22:29;9.15;;;4.03;;
40907;SDS011;51055;59.436;24.778;2024-02-21T02:24:59;7.32;;;3.90;;
40907;SDS011;51055;59.436;24.778;2024-02-21T02:27:27;10.45;;;4.50;;
40907;SDS011;51055;59.436;24.778;2024-02-21T02:29:54;8.80;;;4.65;;
40907;SDS011;51055;59.436;24.778;2024-02-21T02:32:22;9.52;;;4.53;;
40907;SDS011;51055;59.436;24.778;2024-02-21T02:34:49;8.73;;;4.35;;
40907;SDS011;51055;59.436;24.778;2024-02-21T02:37:17;9.82;;;4.53;;
40907;SDS011;51055;59.436;24.778;2024-02-21T02:39:44;9.00;;;4.40;;
40907;SDS011;51055;59.436;24.778;2024-02-21T02:42:12;8.35;;;4.57;;
40907;SDS011;51055;59.436;24.778;2024-02-21T02:44:39;9.05;;;4.38;;
40907;SDS011;51055;59.436;24.778;2024-02-21T02:47:08;9.65;;;4.75;;
40907;SDS011;51055;59.436;24.778;2024-02-21T02:49:35;9.90;;;4.57;;
40907;SDS011;51055;59.436;24.778;2024-02-21T02:52:03;8.40;;;4.22;;
40907;SDS011;51055;59.436;24.778;2024-02-21T02:54:31;7.50;;;4.47;;
40907;SDS011;51055;59.436;24.778;2024-02-21T02:56:58;8.55;;;4.82;;
40907;SDS011;51055;59.436;24.778;2024-02-21T02:59:25;10.05;;;5.13;;
40907;SDS011;51055;59.436;24.778;2024-02-21T03:01:53;9.18;;;4.88;;
40907;SDS011;51055;59.436;24.778;2024-02-21T03:04:21;9.93;;;5.38;;
40907;SDS011;51055;59.436;24.778;2024-02-21T03:06:48;9.60;;;5.38;;
40907;SDS011;51055;59.436;24.778;2024-02-21T03:09:16;9.57;;;5.10;;
40907;SDS011;51055;59.436;24.778;2024-02-21T03:11:44;8.10;;;4.88;;
40907;SDS011;51055;59.436;24.778;2024-02-21T03:14:12;9.77;;;4.55;;
40907;SDS011;51055;59.436;24.778;2024-02-21T03:16:39;8.57;;;4.57;;
40907;SDS011;51055;59.436;24.778;2024-02-21T03:19:07;10.02;;;5.00;;
40907;SDS011;51055;59.436;24.778;2024-02-21T03:21:35;9.65;;;5.00;;
40907;SDS011;51055;59.436;24.778;2024-02-21T03:24:02;8.85;;;4.93;;
40907;SDS011;51055;59.436;24.778;2024-02-21T03:26:29;9.35;;;5.05;;
40907;SDS011;51055;59.436;24.778;2024-02-21T03:28:57;8.68;;;4.60;;
40907;SDS011;51055;59.436;24.778;2024-02-21T03:31:25;8.63;;;4.90;;
40907;SDS011;51055;59.436;24.778;2024-02-21T03:33:58;9.80;;;5.05;;
40907;SDS011;51055;59.436;24.778;2024-02-21T03:36:25;10.55;;;5.22;;
40907;SDS011;51055;59.436;24.778;2024-02-21T03:38:54;8.60;;;5.00;;
40907;SDS011;51055;59.436;24.778;2024-02-21T03:41:21;9.27;;;5.05;;
40907;SDS011;51055;59.436;24.778;2024-02-21T03:43:49;8.85;;;5.10;;
40907;SDS011;51055;59.436;24.778;2024-02-21T03:46:17;7.60;;;4.53;;
40907;SDS011;51055;59.436;24.778;2024-02-21T03:48:45;8.73;;;5.03;;
40907;SDS011;51055;59.436;24.778;2024-02-21T03:51:13;7.75;;;4.63;;
40907;SDS011;51055;59.436;24.778;2024-02-21T03:53:40;10.75;;;5.05;;
40907;SDS011;51055;59.436;24.778;2024-02-21T03:56:08;9.55;;;5.35;;
40907;SDS011;51055;59.436;24.778;2024-02-21T03:58:35;9.20;;;4.85;;
40907;SDS011;51055;59.436;24.778;2024-02-21T04:01:03;13.05;;;5.93;;
40907;SDS011;51055;59.436;24.778;2024-02-21T04:03:31;9.32;;;5.38;;
40907;SDS011;51055;59.436;24.778;2024-02-21T04:05:58;11.82;;;5.78;;
40907;SDS011;51055;59.436;24.778;2024-02-21T04:08:26;11.30;;;5.88;;
40907;SDS011;51055;59.436;24.778;2024-02-21T04:10:53;14.15;;;5.72;;
40907;SDS011;51055;59.436;24.778;2024-02-21T04:13:21;12.50;;;6.47;;
40907;SDS011;51055;59.436;24.778;2024-02-21T04:15:50;10.38;;;5.93;;
40907;SDS011;51055;59.436;24.778;2024-02-21T04:18:17;11.48;;;5.78;;
40907;SDS011;51055;59.436;24.778;2024-02-21T04:20:45;11.10;;;6.18;;
40907;SDS011;51055;59.436;24.778;2024-02-21T04:23:12;11.25;;;6.55;;
40907;SDS011;51055;59.436;24.778;2024-02-21T04:25:40;11.60;;;6.20;;
40907;SDS011;51055;59.436;24.778;2024-02-21T04:28:07;12.15;;;6.57;;
40907;SDS011;51055;59.436;24.778;2024-02-21T04:30:35;11.40;;;6.05;;
40907;SDS011;51055;59.436;24.778;2024-02-21T04:33:02;11.02;;;6.22;;
40907;SDS011;51055;59.436;24.778;2024-02-21T04:35:30;11.30;;;6.43;;
40907;SDS011;51055;59.436;24.778;2024-02-21T04:37:57;11.95;;;7.05;;
40907;SDS011;51055;59.436;24.778;2024-02-21T04:40:25;11.98;;;7.03;;
40907;SDS011;51055;59.436;24.778;2024-02-21T04:42:54;12.45;;;6.82;;
40907;SDS011;51055;59.436;24.778;2024-02-21T04:45:21;13.45;;;6.53;;
40907;SDS011;51055;59.436;24.778;2024-02-21T04:47:49;13.00;;;6.65;;
40907;SDS011;51055;59.436;24.778;2024-02-21T04:50:16;11.80;;;6.78;;
40907;SDS011;51055;59.436;24.778;2024-02-21T04:52:44;10.70;;;6.35;;
40907;SDS011;51055;59.436;24.778;2024-02-21T04:55:11;11.73;;;6.55;;
40907;SDS011;51055;59.436;24.778;2024-02-21T04:57:39;11.82;;;6.13;;
40907;SDS011;51055;59.436;24.778;2024-02-21T05:00:07;12.00;;;7.28;;
40907;SDS011;51055;59.436;24.778;2024-02-21T05:02:34;12.50;;;6.80;;
40907;SDS011;51055;59.436;24.778;2024-02-21T05:05:02;12.30;;;6.68;;
40907;SDS011;51055;59.436;24.778;2024-02-21T05:07:30;9.80;;;6.07;;
40907;SDS011;51055;59.436;24.778;2024-02-21T05:09:57;9.40;;;6.10;;
40907;SDS011;51055;59.436;24.778;2024-02-21T05:12:25;11.55;;;6.45;;
40907;SDS011;51055;59.436;24.778;2024-02-21T05:14:52;10.35;;;6.50;;
40907;SDS011;51055;59.436;24.778;2024-02-21T05:17:19;11.48;;;6.57;;
40907;SDS011;51055;59.436;24.778;2024-02-21T05:19:47;11.73;;;6.80;;
40907;SDS011;51055;59.436;24.778;2024-02-21T05:22:15;10.93;;;6.25;;
40907;SDS011;51055;59.436;24.778;2024-02-21T05:24:42;11.45;;;6.75;;
40907;SDS011;51055;59.436;24.778;2024-02-21T05:27:10;10.35;;;6.53;;
40907;SDS011;51055;59.436;24.778;2024-02-21T05:29:37;12.00;;;7.20;;
40907;SDS011;51055;59.436;24.778;2024-02-21T05:32:05;13.20;;;7.40;;
40907;SDS011;51055;59.436;24.778;2024-02-21T05:34:32;10.10;;;6.35;;
40907;SDS011;51055;59.436;24.778;2024-02-21T05:37:00;11.20;;;6.30;;
40907;SDS011;51055;59.436;24.778;2024-02-21T05:39:28;11.55;;;6.53;;
40907;SDS011;51055;59.436;24.778;2024-02-21T05:41:56;8.75;;;4.93;;
40907;SDS011;51055;59.436;24.778;2024-02-21T05:44:24;10.77;;;6.68;;
40907;SDS011;51055;59.436;24.778;2024-02-21T05:46:53;10.52;;;6.70;;
40907;SDS011;51055;59.436;24.778;2024-02-21T05:49:20;11.43;;;6.63;;
40907;SDS011;51055;59.436;24.778;2024-02-21T05:51:48;12.07;;;6.40;;
40907;SDS011;51055;59.436;24.778;2024-02-21T05:54:15;10.00;;;6.63;;
40907;SDS011;51055;59.436;24.778;2024-02-21T05:56:46;10.40;;;6.50;;
40907;SDS011;51055;59.436;24.778;2024-02-21T05:59:14;12.65;;;7.10;;
40907;SDS011;51055;59.436;24.778;2024-02-21T06:01:42;10.32;;;6.82;;
40907;SDS011;51055;59.436;24.778;2024-02-21T06:04:09;10.85;;;6.55;;
40907;SDS011;51055;59.436;24.778;2024-02-21T06:06:37;11.27;;;6.20;;
40907;SDS011;51055;59.436;24.778;2024-02-21T06:09:04;10.73;;;6.60;;
40907;SDS011;51055;59.436;24.778;2024-02-21T06:11:32;11.02;;;6.85;;
40907;SDS011;51055;59.436;24.778;2024-02-21T06:14:00;20.77;;;10.68;;
40907;SDS011;51055;59.436;24.778;2024-02-21T06:16:27;16.25;;;9.15;;
40907;SDS011;51055;59.436;24.778;2024-02-21T06:18:55;12.38;;;8.40;;
40907;SDS011;51055;59.436;24.778;2024-02-21T06:21:23;11.77;;;8.38;;
40907;SDS011;51055;59.436;24.778;2024-02-21T06:23:50;12.25;;;7.88;;
40907;SDS011;51055;59.436;24.778;2024-02-21T06:26:18;14.38;;;8.60;;
40907;SDS011;51055;59.436;24.778;2024-02-21T06:28:45;13.15;;;8.27;;
40907;SDS011;51055;59.436;24.778;2024-02-21T06:31:14;12.15;;;8.43;;
40907;SDS011;51055;59.436;24.778;2024-02-21T06:33:41;13.18;;;7.60;;
40907;SDS011;51055;59.436;24.778;2024-02-21T06:36:09;12.35;;;8.18;;
40907;SDS011;51055;59.436;24.778;2024-02-21T06:38:37;13.07;;;8.77;;
40907;SDS011;51055;59.436;24.778;2024-02-21T06:41:04;13.68;;;8.02;;
40907;SDS011;51055;59.436;24.778;2024-02-21T06:43:33;10.38;;;6.15;;
40907;SDS011;51055;59.436;24.778;2024-02-21T06:46:00;11.73;;;7.07;;
40907;SDS011;51055;59.436;24.778;2024-02-21T06:48:29;9.52;;;5.78;;
40907;SDS011;51055;59.436;24.778;2024-02-21T06:50:56;12.25;;;6.97;;
40907;SDS011;51055;59.436;24.778;2024-02-21T06:53:24;14.15;;;7.90;;
40907;SDS011;51055;59.436;24.778;2024-02-21T06:55:51;12.43;;;7.85;;
40907;SDS011;51055;59.436;24.778;2024-02-21T06:58:19;14.35;;;7.85;;
40907;SDS011;51055;59.436;24.778;2024-02-21T07:00:46;12.65;;;7.75;;
40907;SDS011;51055;59.436;24.778;2024-02-21T07:03:14;13.88;;;8.27;;
40907;SDS011;51055;59.436;24.778;2024-02-21T07:05:41;12.18;;;7.97;;
40907;SDS011;51055;59.436;24.778;2024-02-21T07:08:09;13.23;;;8.48;;
40907;SDS011;51055;59.436;24.778;2024-02-21T07:10:37;13.07;;;8.68;;
40907;SDS011;51055;59.436;24.778;2024-02-21T07:13:04;13.95;;;7.75;;
40907;SDS011;51055;59.436;24.778;2024-02-21T07:15:32;15.15;;;8.43;;
40907;SDS011;51055;59.436;24.778;2024-02-21T07:18:00;14.17;;;8.83;;
40907;SDS011;51055;59.436;24.778;2024-02-21T07:20:27;14.48;;;8.65;;
40907;SDS011;51055;59.436;24.778;2024-02-21T07:22:56;14.48;;;8.77;;
40907;SDS011;51055;59.436;24.778;2024-02-21T07:25:23;15.98;;;9.15;;
40907;SDS011;51055;59.436;24.778;2024-02-21T07:27:51;14.57;;;8.75;;
40907;SDS011;51055;59.436;24.778;2024-02-21T07:30:18;15.30;;;8.80;;
40907;SDS011;51055;59.436;24.778;2024-02-21T07:32:48;13.05;;;8.60;;
40907;SDS011;51055;59.436;24.778;2024-02-21T07:35:17;14.73;;;8.63;;
40907;SDS011;51055;59.436;24.778;2024-02-21T07:37:44;15.57;;;8.98;;
40907;SDS011;51055;59.436;24.778;2024-02-21T07:40:13;13.90;;;8.23;;
40907;SDS011;51055;59.436;24.778;2024-02-21T07:42:41;14.50;;;8.95;;
40907;SDS011;51055;59.436;24.778;2024-02-21T07:45:12;14.68;;;8.65;;
40907;SDS011;51055;59.436;24.778;2024-02-21T07:47:39;14.63;;;8.50;;
40907;SDS011;51055;59.436;24.778;2024-02-21T07:50:07;15.27;;;8.40;;
40907;SDS011;51055;59.436;24.778;2024-02-21T07:52:35;13.35;;;7.97;;
40907;SDS011;51055;59.436;24.778;2024-02-21T07:55:02;13.63;;;8.25;;
40907;SDS011;51055;59.436;24.778;2024-02-21T07:57:30;15.52;;;8.32;;
40907;SDS011;51055;59.436;24.778;2024-02-21T07:59:58;12.57;;;8.05;;
40907;SDS011;51055;59.436;24.778;2024-02-21T08:02:25;13.13;;;8.20;;
40907;SDS011;51055;59.436;24.778;2024-02-21T08:04:53;14.60;;;8.50;;
40907;SDS011;51055;59.436;24.778;2024-02-21T08:07:20;13.85;;;7.93;;
40907;SDS011;51055;59.436;24.778;2024-02-21T08:09:47;13.73;;;8.23;;
40907;SDS011;51055;59.436;24.778;2024-02-21T08:12:15;14.05;;;8.15;;
40907;SDS011;51055;59.436;24.778;2024-02-21T08:14:42;12.55;;;8.02;;
40907;SDS011;51055;59.436;24.778;2024-02-21T08:17:11;10.55;;;5.43;;
40907;SDS011;51055;59.436;24.778;2024-02-21T08:19:38;12.55;;;7.72;;
40907;SDS011;51055;59.436;24.778;2024-02-21T08:22:06;13.73;;;7.97;;
40907;SDS011;51055;59.436;24.778;2024-02-21T08:24:33;12.35;;;7.38;;
40907;SDS011;51055;59.436;24.778;2024-02-21T08:27:01;11.95;;;7.35;;
40907;SDS011;51055;59.436;24.778;2024-02-21T08:29:28;11.27;;;7.57;;
40907;SDS011;51055;59.436;24.778;2024-02-21T08:31:56;12.77;;;7.65;;
40907;SDS011;51055;59.436;24.778;2024-02-21T08:34:24;12.63;;;7.85;;
40907;SDS011;51055;59.436;24.778;2024-02-21T08:36:51;9.48;;;6.72;;
40907;SDS011;51055;59.436;24.778;2024-02-21T08:39:19;13.60;;;6.93;;
40907;SDS011;51055;59.436;24.778;2024-02-21T08:41:46;12.00;;;6.72;;
40907;SDS011;51055;59.436;24.778;2024-02-21T08:44:23;10.95;;;6.10;;
40907;SDS011;51055;59.436;24.778;2024-02-21T08:46:54;12.40;;;6.80;;
40907;SDS011;51055;59.436;24.778;2024-02-21T08:49:22;8.00;;;5.33;;
40907;SDS011;51055;59.436;24.778;2024-02-21T08:51:50;11.65;;;6.55;;
40907;SDS011;51055;59.436;24.778;2024-02-21T08:54:18;11.02;;;6.22;;
40907;SDS011;51055;59.436;24.778;2024-02-21T08:56:45;10.52;;;6.30;;
40907;SDS011;51055;59.436;24.778;2024-02-21T08:59:13;11.18;;;6.70;;
40907;SDS011;51055;59.436;24.778;2024-02-21T09:01:43;10.02;;;6.22;;
40907;SDS011;51055;59.436;24.778;2024-02-21T09:04:11;10.95;;;6.55;;
40907;SDS011;51055;59.436;24.778;2024-02-21T09:06:39;12.10;;;6.30;;
40907;SDS011;51055;59.436;24.778;2024-02-21T09:09:09;10.07;;;6.22;;
40907;SDS011;51055;59.436;24.778;2024-02-21T09:11:37;10.57;;;6.18;;
40907;SDS011;51055;59.436;24.778;2024-02-21T09:14:04;10.25;;;6.63;;
40907;SDS011;51055;59.436;24.778;2024-02-21T09:16:32;11.68;;;7.13;;
40907;SDS011;51055;59.436;24.778;2024-02-21T09:19:00;11.65;;;6.63;;
40907;SDS011;51055;59.436;24.778;2024-02-21T09:21:28;12.35;;;7.03;;
40907;SDS011;51055;59.436;24.778;2024-02-21T09:23:55;11.20;;;6.93;;
40907;SDS011;51055;59.436;24.778;2024-02-21T09:26:26;13.18;;;7.18;;
40907;SDS011;51055;59.436;24.778;2024-02-21T09:28:54;11.38;;;7.05;;
40907;SDS011;51055;59.436;24.778;2024-02-21T09:31:22;11.57;;;7.00;;
40907;SDS011;51055;59.436;24.778;2024-02-21T09:33:49;11.93;;;7.28;;
40907;SDS011;51055;59.436;24.778;2024-02-21T09:36:17;13.55;;;7.50;;
40907;SDS011;51055;59.436;24.778;2024-02-21T09:38:44;13.80;;;7.65;;
40907;SDS011;51055;59.436;24.778;2024-02-21T09:41:18;14.13;;;8.48;;
40907;SDS011;51055;59.436;24.778;2024-02-21T09:43:52;14.38;;;8.27;;
40907;SDS011;51055;59.436;24.778;2024-02-21T09:49:13;15.30;;;8.43;;
40907;SDS011;51055;59.436;24.778;2024-02-21T09:51:44;14.20;;;7.93;;
40907;SDS011;51055;59.436;24.778;2024-02-21T09:54:12;16.35;;;9.00;;
40907;SDS011;51055;59.436;24.778;2024-02-21T09:56:46;14.52;;;8.48;;
40907;SDS011;51055;59.436;24.778;2024-02-21T09:59:15;13.43;;;7.68;;
40907;SDS011;51055;59.436;24.778;2024-02-21T10:01:43;13.18;;;7.85;;
40907;SDS011;51055;59.436;24.778;2024-02-21T10:04:12;13.07;;;7.97;;
40907;SDS011;51055;59.436;24.778;2024-02-21T10:06:40;11.43;;;7.15;;
40907;SDS011;51055;59.436;24.778;2024-02-21T10:09:08;12.68;;;7.63;;
40907;SDS011;51055;59.436;24.778;2024-02-21T10:11:35;14.10;;;7.68;;
40907;SDS011;51055;59.436;24.778;2024-02-21T10:14:07;13.95;;;7.90;;
40907;SDS011;51055;59.436;24.778;2024-02-21T10:16:35;12.73;;;7.95;;
40907;SDS011;51055;59.436;24.778;2024-02-21T10:19:04;17.38;;;8.38;;
40907;SDS011;51055;59.436;24.778;2024-02-21T10:21:32;15.75;;;8.38;;
40907;SDS011;51055;59.436;24.778;2024-02-21T10:24:00;15.52;;;8.30;;
40907;SDS011;51055;59.436;24.778;2024-02-21T10:26:27;13.32;;;8.05;;
40907;SDS011;51055;59.436;24.778;2024-02-21T10:28:55;14.07;;;8.15;;
40907;SDS011;51055;59.436;24.778;2024-02-21T10:31:23;11.87;;;6.33;;
40907;SDS011;51055;59.436;24.778;2024-02-21T10:33:58;15.77;;;8.77;;
40907;SDS011;51055;59.436;24.778;2024-02-21T10:36:26;16.08;;;9.05;;
40907;SDS011;51055;59.436;24.778;2024-02-21T10:38:54;17.25;;;9.50;;
40907;SDS011;51055;59.436;24.778;2024-02-21T10:41:23;12.97;;;6.63;;
40907;SDS011;51055;59.436;24.778;2024-02-21T10:43:51;10.85;;;6.72;;
40907;SDS011;51055;59.436;24.778;2024-02-21T10:46:24;16.17;;;8.95;;
40907;SDS011;51055;59.436;24.778;2024-02-21T10:49:10;16.42;;;9.18;;
40907;SDS011;51055;59.436;24.778;2024-02-21T10:51:40;18.15;;;8.82;;
40907;SDS011;51055;59.436;24.778;2024-02-21T10:56:38;15.77;;;9.27;;
40907;SDS011;51055;59.436;24.778;2024-02-21T10:59:07;16.08;;;8.93;;
40907;SDS011;51055;59.436;24.778;2024-02-21T11:01:35;10.53;;;7.10;;
40907;SDS011;51055;59.436;24.778;2024-02-21T11:04:06;12.02;;;7.53;;
40907;SDS011;51055;59.436;24.778;2024-02-21T11:06:35;17.60;;;9.27;;
40907;SDS011;51055;59.436;24.778;2024-02-21T11:09:04;16.27;;;8.45;;
40907;SDS011;51055;59.436;24.778;2024-02-21T11:11:35;14.00;;;8.10;;
40907;SDS011;51055;59.436;24.778;2024-02-21T11:14:10;14.82;;;8.50;;
40907;SDS011;51055;59.436;24.778;2024-02-21T11:16:39;15.52;;;8.55;;
40907;SDS011;51055;59.436;24.778;2024-02-21T11:19:20;14.18;;;8.27;;
40907;SDS011;51055;59.436;24.778;2024-02-21T11:21:49;18.70;;;8.88;;
40907;SDS011;51055;59.436;24.778;2024-02-21T11:24:26;11.75;;;6.72;;
40907;SDS011;51055;59.436;24.778;2024-02-21T11:26:55;15.48;;;8.48;;
40907;SDS011;51055;59.436;24.778;2024-02-21T11:29:24;10.00;;;6.73;;
40907;SDS011;51055;59.436;24.778;2024-02-21T11:31:52;12.90;;;8.07;;
40907;SDS011;51055;59.436;24.778;2024-02-21T11:34:20;14.07;;;7.70;;
40907;SDS011;51055;59.436;24.778;2024-02-21T11:36:48;13.23;;;7.90;;
40907;SDS011;51055;59.436;24.778;2024-02-21T11:39:19;13.57;;;8.18;;
40907;SDS011;51055;59.436;24.778;2024-02-21T11:42:03;13.45;;;7.68;;
40907;SDS011;51055;59.436;24.778;2024-02-21T11:44:31;13.43;;;8.27;;
40907;SDS011;51055;59.436;24.778;2024-02-21T11:46:59;16.35;;;8.65;;
40907;SDS011;51055;59.436;24.778;2024-02-21T11:49:28;13.65;;;8.52;;
40907;SDS011;51055;59.436;24.778;2024-02-21T11:52:02;12.38;;;7.88;;
40907;SDS011;51055;59.436;24.778;2024-02-21T11:54:31;15.27;;;9.05;;
40907;SDS011;51055;59.436;24.778;2024-02-21T11:56:59;13.82;;;8.48;;
40907;SDS011;51055;59.436;24.778;2024-02-21T11:59:29;15.70;;;8.85;;
40907;SDS011;51055;59.436;24.778;2024-02-21T12:01:57;13.48;;;9.05;;
40907;SDS011;51055;59.436;24.778;2024-02-21T12:04:25;15.27;;;8.85;;
40907;SDS011;51055;59.436;24.778;2024-02-21T12:06:53;14.55;;;8.80;;
40907;SDS011;51055;59.436;24.778;2024-02-21T12:09:22;16.02;;;9.10;;
40907;SDS011;51055;59.436;24.778;2024-02-21T12:12:00;14.50;;;8.40;;
40907;SDS011;51055;59.436;24.778;2024-02-21T12:14:28;15.77;;;9.30;;
40907;SDS011;51055;59.436;24.778;2024-02-21T12:16:55;17.90;;;9.18;;
40907;SDS011;51055;59.436;24.778;2024-02-21T12:19:23;15.40;;;9.43;;
40907;SDS011;51055;59.436;24.778;2024-02-21T12:21:51;14.57;;;8.65;;
40907;SDS011;51055;59.436;24.778;2024-02-21T12:24:22;14.77;;;9.32;;
40907;SDS011;51055;59.436;24.778;2024-02-21T12:26:53;13.98;;;8.73;;
40907;SDS011;51055;59.436;24.778;2024-02-21T12:29:21;11.63;;;6.57;;
40907;SDS011;51055;59.436;24.778;2024-02-21T12:31:49;14.25;;;8.20;;
40907;SDS011;51055;59.436;24.778;2024-02-21T12:34:17;13.52;;;8.02;;
40907;SDS011;51055;59.436;24.778;2024-02-21T12:36:58;12.27;;;7.15;;
40907;SDS011;51055;59.436;24.778;2024-02-21T12:39:25;7.82;;;5.50;;
40907;SDS011;51055;59.436;24.778;2024-02-21T12:41:56;10.60;;;6.97;;
40907;SDS011;51055;59.436;24.778;2024-02-21T12:44:24;11.38;;;6.50;;
40907;SDS011;51055;59.436;24.778;2024-02-21T12:46:51;9.98;;;6.35;;
40907;SDS011;51055;59.436;24.778;2024-02-21T12:49:22;11.80;;;6.63;;
40907;SDS011;51055;59.436;24.778;2024-02-21T12:51:49;8.98;;;5.70;;
40907;SDS011;51055;59.436;24.778;2024-02-21T12:54:17;9.60;;;5.93;;
40907;SDS011;51055;59.436;24.778;2024-02-21T12:56:45;12.68;;;7.47;;
40907;SDS011;51055;59.436;24.778;2024-02-21T12:59:13;6.85;;;4.00;;
40907;SDS011;51055;59.436;24.778;2024-02-21T13:01:41;5.40;;;3.20;;
40907;SDS011;51055;59.436;24.778;2024-02-21T13:04:09;8.40;;;4.65;;
40907;SDS011;51055;59.436;24.778;2024-02-21T13:06:36;8.77;;;4.38;;
40907;SDS011;51055;59.436;24.778;2024-02-21T13:09:04;9.50;;;4.95;;
40907;SDS011;51055;59.436;24.778;2024-02-21T13:11:35;11.48;;;5.95;;
40907;SDS011;51055;59.436;24.778;2024-02-21T13:14:03;10.15;;;5.80;;
40907;SDS011;51055;59.436;24.778;2024-02-21T13:16:30;11.68;;;4.97;;
40907;SDS011;51055;59.436;24.778;2024-02-21T13:18:58;9.05;;;5.20;;
40907;SDS011;51055;59.436;24.778;2024-02-21T13:21:25;9.00;;;5.38;;
40907;SDS011;51055;59.436;24.778;2024-02-21T13:23:53;7.25;;;4.63;;
40907;SDS011;51055;59.436;24.778;2024-02-21T13:26:21;8.60;;;4.63;;
40907;SDS011;51055;59.436;24.778;2024-02-21T13:28:48;7.50;;;4.53;;
40907;SDS011;51055;59.436;24.778;2024-02-21T13:31:16;8.88;;;4.93;;
40907;SDS011;51055;59.436;24.778;2024-02-21T13:33:43;6.55;;;3.90;;
40907;SDS011;51055;59.436;24.778;2024-02-21T13:36:13;7.70;;;4.55;;
40907;SDS011;51055;59.436;24.778;2024-02-21T13:38:41;6.85;;;3.65;;
40907;SDS011;51055;59.436;24.778;2024-02-21T13:41:09;7.25;;;3.92;;
40907;SDS011;51055;59.436;24.778;2024-02-21T13:43:36;6.75;;;3.72;;
40907;SDS011;51055;59.436;24.778;2024-02-21T13:46:04;7.07;;;4.03;;
40907;SDS011;51055;59.436;24.778;2024-02-21T13:48:36;6.93;;;4.00;;
40907;SDS011;51055;59.436;24.778;2024-02-21T13:51:04;7.22;;;4.35;;
40907;SDS011;51055;59.436;24.778;2024-02-21T13:53:32;6.70;;;3.90;;
40907;SDS011;51055;59.436;24.778;2024-02-21T13:58:28;6.63;;;3.50;;
40907;SDS011;51055;59.436;24.778;2024-02-21T14:00:56;7.97;;;4.05;;
40907;SDS011;51055;59.436;24.778;2024-02-21T14:03:24;8.73;;;5.13;;
40907;SDS011;51055;59.436;24.778;2024-02-21T14:05:53;7.28;;;4.45;;
40907;SDS011;51055;59.436;24.778;2024-02-21T14:08:21;7.93;;;4.13;;
40907;SDS011;51055;59.436;24.778;2024-02-21T14:10:49;8.60;;;5.22;;
40907;SDS011;51055;59.436;24.778;2024-02-21T14:13:17;9.93;;;5.28;;
40907;SDS011;51055;59.436;24.778;2024-02-21T14:15:44;9.88;;;5.32;;
40907;SDS011;51055;59.436;24.778;2024-02-21T14:18:17;8.77;;;5.35;;
40907;SDS011;51055;59.436;24.778;2024-02-21T14:20:44;8.15;;;5.03;;
40907;SDS011;51055;59.436;24.778;2024-02-21T14:23:14;7.85;;;4.68;;
40907;SDS011;51055;59.436;24.778;2024-02-21T14:25:42;6.97;;;4.20;;
40907;SDS011;51055;59.436;24.778;2024-02-21T14:28:09;7.90;;;4.25;;
40907;SDS011;51055;59.436;24.778;2024-02-21T14:30:37;6.43;;;3.85;;
40907;SDS011;51055;59.436;24.778;2024-02-21T14:33:04;6.10;;;3.42;;
40907;SDS011;51055;59.436;24.778;2024-02-21T14:35:32;7.22;;;3.97;;
40907;SDS011;51055;59.436;24.778;2024-02-21T14:38:01;6.15;;;3.35;;
40907;SDS011;51055;59.436;24.778;2024-02-21T14:40:29;7.03;;;3.70;;
40907;SDS011;51055;59.436;24.778;2024-02-21T14:42:57;7.38;;;3.92;;